Terminal Aerodrome Forecast
Issued by NWS

Home | Current Version | Previous Version | Text Only | Print | Product List | Glossary On
Versions: 1 2 3 4 5 6 7 8 9 10 11 12 13 14 15 16 17 18 19 20 21 22 23 24 25 26 27 28 29 30 31
038
FTUS46 KOTX 070520
TAFSFF
TAF
KSFF 070520Z 0706/0806 VRB04KT P6SM SCT150
     FM071000 00000KT P6SM SCT015 SCT150
     FM071800 09003KT P6SM SCT060 BKN150 BKN200
     FM080300 05002KT P6SM FEW015 BKN060=

USA.gov is the U.S. government's official web portal to all federal, state and local government web resources and services.